Fitchville, Ohio
Current Conditions -  °F | °C
As of 4:52 AM on Friday 21 Nov 2014 (Local Time) from KMFD Reporting Station
Few Clouds Few Clouds  
Wind Chill:   Ceiling: Unl
Heat Index: 14°   Visibility: 10mi
Dew Point:   Wind: 5mph
Humidity: 74%   Direction: 260°W
Pressure: 30.28"   Gusts: NA
Location:  41.1035°N, 82.407°W
Report Text: KMFD 210952Z AUTO 26004KT 10SM FEW021 FEW042 M10/M14 A3028 RMK AO2 SNB11E33 SLP276 P0000 T11001139
Loading
Personal Weather Stations






























Interactive Weather Map New forecast layout! Learn more

10-Day Weather Forecast

Advertisements
Track Severe Weather on mobile